Terminal Aerodrome Forecast
Issued by NWS Cleveland, OH

Home | Current Version | Previous Version | Text Only | Print | Product List | Glossary Off
Versions: 1 2 3 4 5 6 7 8 9 10 11 12 13 14 15 16 17 18 19 20 21 22 23 24 25 26 27 28 29 30 31 32 33 34 35 36 37

000
FTUS41 KCLE 260200 AAA
TAFCLE
TAF AMD
KCLE 260256Z 2603/2706 16005KT P6SM BKN250
      TEMPO 2609/2613 5SM BR
     FM261400 20006KT P6SM SCT250
     FM261800 22008KT P6SM SCT035 BKN250
     FM270100 25005KT P6SM VCTS BKN045CB BKN250=

USA.gov is the U.S. government's official web portal to all federal, state and local government web resources and services.